createdAt,value
2022-10-14T00:01:31.590Z,12.49
2022-10-14T00:04:00.871Z,12.47
2022-10-14T00:06:30.351Z,12.47
2022-10-14T00:08:59.775Z,12.47
2022-10-14T00:11:28.171Z,12.50
2022-10-14T00:13:56.622Z,12.49
2022-10-14T00:16:34.814Z,12.44
2022-10-14T00:19:03.265Z,12.42
2022-10-14T00:21:30.237Z,12.37
2022-10-14T00:23:58.455Z,12.35
2022-10-14T00:26:27.146Z,12.32
2022-10-14T00:31:47.452Z,12.29
2022-10-14T00:34:16.825Z,12.26
2022-10-14T00:36:44.328Z,12.27
2022-10-14T00:39:15.496Z,12.24
2022-10-14T00:41:43.092Z,12.21
2022-10-14T00:44:13.585Z,12.19
2022-10-14T00:46:42.115Z,12.18
2022-10-14T00:49:14.546Z,12.12
2022-10-14T00:51:42.672Z,12.11
2022-10-14T00:57:01.531Z,12.03
2022-10-14T00:59:28.766Z,12.01
2022-10-14T01:01:56.478Z,11.98
2022-10-14T01:04:24.127Z,11.92
2022-10-14T01:07:09.729Z,11.91
2022-10-14T01:09:40.514Z,11.91
2022-10-14T01:12:28.730Z,11.85
2022-10-14T01:15:14.845Z,11.86
2022-10-14T01:18:04.415Z,11.86
2022-10-14T01:20:44.127Z,11.89
2022-10-14T01:23:33.259Z,11.89
2022-10-14T01:26:10.136Z,11.84
2022-10-14T01:28:54.885Z,11.83
2022-10-14T01:31:23.579Z,11.79
2022-10-14T01:33:53.521Z,11.74
2022-10-14T01:36:22.708Z,11.73
2022-10-14T01:39:00.056Z,11.69
2022-10-14T01:41:32.657Z,11.68
2022-10-14T01:44:03.022Z,11.66
2022-10-14T01:46:31.456Z,11.60
2022-10-14T01:49:00.833Z,11.60
2022-10-14T01:51:32.293Z,11.51
2022-10-14T01:54:03.092Z,11.53
2022-10-14T01:56:31.322Z,11.47
2022-10-14T01:58:59.756Z,11.47
2022-10-14T02:01:27.715Z,11.47
2022-10-14T02:03:55.113Z,11.42
2022-10-14T02:06:22.661Z,11.41
2022-10-14T02:09:01.628Z,11.43
2022-10-14T02:11:33.496Z,11.42
2022-10-14T02:14:11.584Z,11.44
2022-10-14T02:16:41.046Z,11.36
2022-10-14T02:19:11.365Z,11.34
2022-10-14T02:22:04.412Z,11.33
2022-10-14T02:24:41.408Z,11.37
2022-10-14T02:27:10.858Z,11.33
2022-10-14T02:29:40.977Z,11.37
2022-10-14T02:32:09.169Z,11.35
2022-10-14T02:34:37.869Z,11.28
2022-10-14T02:37:09.173Z,11.32
2022-10-14T02:39:37.630Z,11.35
2022-10-14T02:42:06.079Z,11.33
2022-10-14T02:44:34.361Z,11.26
2022-10-14T02:47:02.406Z,11.35
2022-10-14T02:49:30.397Z,11.37
2022-10-14T02:51:58.438Z,11.33
2022-10-14T02:54:25.558Z,11.35
2022-10-14T02:56:52.268Z,11.38
2022-10-14T02:59:18.911Z,11.46
2022-10-14T03:01:46.801Z,11.54
2022-10-14T03:04:13.812Z,11.59
2022-10-14T03:06:40.472Z,11.61
2022-10-14T03:09:08.915Z,11.70
2022-10-14T03:11:39.561Z,11.64
2022-10-14T03:14:16.258Z,11.67
2022-10-14T03:16:43.699Z,11.70
2022-10-14T03:19:17.286Z,11.67
2022-10-14T03:21:49.206Z,11.64
2022-10-14T03:24:20.034Z,11.61
2022-10-14T03:26:54.439Z,11.56
2022-10-14T03:29:25.671Z,11.48
2022-10-14T03:32:05.533Z,11.43
2022-10-14T03:34:53.263Z,11.45
2022-10-14T03:37:23.891Z,11.38
2022-10-14T03:39:53.975Z,11.37
2022-10-14T03:42:22.689Z,11.38
2022-10-14T03:44:51.488Z,11.37
2022-10-14T03:47:26.214Z,11.41
2022-10-14T03:49:53.168Z,11.44
2022-10-14T03:52:27.272Z,11.57
2022-10-14T03:55:03.956Z,11.59
2022-10-14T03:57:31.248Z,11.69
2022-10-14T03:59:59.840Z,11.66
2022-10-14T04:02:41.583Z,11.64
2022-10-14T04:05:29.950Z,11.75
2022-10-14T04:07:58.177Z,11.67
2022-10-14T04:10:26.314Z,11.76
2022-10-14T04:12:54.951Z,11.84
2022-10-14T04:15:29.788Z,11.84
2022-10-14T04:18:15.805Z,11.81
2022-10-14T04:20:45.107Z,11.83
2022-10-14T04:23:14.086Z,11.76
2022-10-14T04:25:44.706Z,11.71
2022-10-14T04:28:12.527Z,11.73
2022-10-14T04:30:46.682Z,11.78
2022-10-14T04:33:20.420Z,11.81
2022-10-14T04:35:50.229Z,11.77
2022-10-14T04:38:27.070Z,11.72
2022-10-14T04:41:00.137Z,11.70
2022-10-14T04:43:28.636Z,11.69
2022-10-14T04:45:58.316Z,11.69
2022-10-14T04:48:26.709Z,11.71
2022-10-14T04:50:55.307Z,11.68
2022-10-14T04:53:33.052Z,11.63
2022-10-14T04:56:12.289Z,11.64
2022-10-14T04:58:50.893Z,11.74
2022-10-14T05:01:18.915Z,11.80
2022-10-14T05:03:46.175Z,11.89
2022-10-14T05:06:13.709Z,11.89
2022-10-14T05:08:43.982Z,11.91
2022-10-14T05:11:13.845Z,11.87
2022-10-14T05:13:47.052Z,11.82
2022-10-14T05:16:15.451Z,11.83
2022-10-14T05:18:42.190Z,11.89
2022-10-14T05:21:12.230Z,11.81
2022-10-14T05:24:05.811Z,11.77
2022-10-14T05:27:36.305Z,11.78
2022-10-14T05:30:05.603Z,11.72
2022-10-14T05:32:38.625Z,11.73
2022-10-14T05:35:06.728Z,11.84
2022-10-14T05:37:39.033Z,11.93
2022-10-14T05:40:08.416Z,11.83
2022-10-14T05:42:38.903Z,11.72
2022-10-14T05:45:09.212Z,11.71
2022-10-14T05:48:10.359Z,11.82
2022-10-14T05:50:38.172Z,11.80
2022-10-14T05:53:11.908Z,11.86
2022-10-14T05:55:45.832Z,11.89
2022-10-14T05:58:14.362Z,11.98
2022-10-14T06:01:08.195Z,11.94
2022-10-14T06:03:39.492Z,11.93
2022-10-14T06:06:08.314Z,12.03
2022-10-14T06:08:36.346Z,12.12
2022-10-14T06:11:04.637Z,12.01
2022-10-14T06:13:33.504Z,12.09
2022-10-14T06:16:05.093Z,12.18
2022-10-14T06:18:32.832Z,12.14
2022-10-14T06:21:01.150Z,12.15
2022-10-14T06:23:28.745Z,12.27
2022-10-14T06:25:55.557Z,12.43
2022-10-14T06:28:23.017Z,12.58
2022-10-14T06:30:53.574Z,12.68
2022-10-14T06:33:45.871Z,12.79
2022-10-14T06:36:13.664Z,12.83
2022-10-14T06:38:41.155Z,12.92
2022-10-14T06:41:09.145Z,12.92
2022-10-14T06:43:36.489Z,12.92
2022-10-14T06:46:03.463Z,13.10
2022-10-14T06:51:22.418Z,13.29
2022-10-14T06:53:50.317Z,13.39
2022-10-14T06:56:17.516Z,13.47
2022-10-14T06:58:44.351Z,13.57
2022-10-14T07:01:12.002Z,13.54
2022-10-14T07:03:39.409Z,13.62
2022-10-14T07:06:07.843Z,13.73
2022-10-14T07:08:34.729Z,13.85
2022-10-14T07:11:01.868Z,13.92
2022-10-14T07:13:29.559Z,13.95
2022-10-14T07:15:56.139Z,13.92
2022-10-14T07:18:26.701Z,14.02
2022-10-14T07:20:53.430Z,14.10
2022-10-14T07:23:21.728Z,14.14
2022-10-14T07:25:49.021Z,14.19
2022-10-14T07:28:15.900Z,14.29
2022-10-14T07:30:43.221Z,14.39
2022-10-14T07:33:11.301Z,14.46
2022-10-14T07:35:38.393Z,14.53
2022-10-14T07:38:05.764Z,14.63
2022-10-14T07:40:32.883Z,14.72
2022-10-14T07:43:00.355Z,14.75
2022-10-14T07:45:27.667Z,14.75
2022-10-14T07:47:54.879Z,14.79
2022-10-14T07:50:22.264Z,14.89
2022-10-14T07:52:49.611Z,14.91
2022-10-14T07:55:17.718Z,15.03
2022-10-14T07:58:09.300Z,15.20
2022-10-14T08:00:37.289Z,15.35
2022-10-14T08:03:29.546Z,15.49
2022-10-14T08:06:21.217Z,15.77
2022-10-14T08:08:48.702Z,16.00
2022-10-14T08:11:21.380Z,16.26
2022-10-14T08:13:50.648Z,16.39
2022-10-14T08:16:18.548Z,16.50
2022-10-14T08:19:14.682Z,16.58
2022-10-14T08:21:42.785Z,16.57
2022-10-14T08:24:10.930Z,16.57
2022-10-14T08:26:39.511Z,16.64
2022-10-14T08:32:03.337Z,16.51
2022-10-14T08:34:31.477Z,16.68
2022-10-14T08:36:58.540Z,16.99
2022-10-14T08:39:27.496Z,17.20
2022-10-14T08:42:13.343Z,17.48
2022-10-14T08:44:42.685Z,17.66
2022-10-14T08:47:12.890Z,17.83
2022-10-14T08:49:45.828Z,17.98
2022-10-14T08:52:24.952Z,18.15
2022-10-14T08:54:57.813Z,18.18
2022-10-14T08:57:28.173Z,18.15
2022-10-14T08:59:56.771Z,18.21
2022-10-14T09:02:49.393Z,18.39
2022-10-14T09:05:17.850Z,18.35
2022-10-14T09:07:45.917Z,18.53
2022-10-14T09:10:15.152Z,18.69
2022-10-14T09:12:43.606Z,18.86
2022-10-14T09:15:16.643Z,19.00
2022-10-14T09:17:49.142Z,19.08
2022-10-14T09:20:15.839Z,19.22
2022-10-14T09:22:46.719Z,18.96
2022-10-14T09:25:17.738Z,18.86
2022-10-14T09:28:11.327Z,18.70
2022-10-14T09:30:40.577Z,18.53
2022-10-14T09:33:37.091Z,18.38
2022-10-14T09:36:18.358Z,18.21
2022-10-14T09:38:47.620Z,18.17
2022-10-14T09:41:15.243Z,18.13
2022-10-14T09:44:03.291Z,18.13
2022-10-14T09:46:31.526Z,18.22
2022-10-14T09:48:59.193Z,18.24
2022-10-14T09:51:29.451Z,18.33
2022-10-14T09:53:58.293Z,18.41
2022-10-14T09:56:29.671Z,18.55
2022-10-14T09:58:57.589Z,18.69
2022-10-14T10:01:32.470Z,19.00
2022-10-14T10:04:19.212Z,19.32
2022-10-14T10:06:53.481Z,19.52
2022-10-14T10:09:20.617Z,19.52
2022-10-14T10:11:48.215Z,19.49
2022-10-14T10:14:27.077Z,19.46
2022-10-14T10:17:09.972Z,19.40
2022-10-14T10:19:40.561Z,19.48
2022-10-14T10:24:47.720Z,19.47
2022-10-14T10:27:25.214Z,19.56
2022-10-14T10:29:53.351Z,19.61
2022-10-14T10:32:32.038Z,19.59
2022-10-14T10:35:04.416Z,19.75
2022-10-14T10:37:46.154Z,19.79
2022-10-14T10:40:31.931Z,19.93
2022-10-14T10:43:04.785Z,19.92
2022-10-14T10:45:45.282Z,19.94
2022-10-14T10:48:33.050Z,19.65
2022-10-14T10:51:04.721Z,19.63
2022-10-14T10:54:19.610Z,19.56
2022-10-14T10:56:47.003Z,19.30
2022-10-14T10:59:26.550Z,19.21
2022-10-14T11:02:00.273Z,19.21
2022-10-14T11:04:34.171Z,19.19
2022-10-14T11:07:27.105Z,19.24
2022-10-14T11:10:19.765Z,19.34
2022-10-14T11:13:32.402Z,19.31
2022-10-14T11:16:05.453Z,19.48
2022-10-14T11:18:39.634Z,19.64
2022-10-14T11:21:14.859Z,19.72
2022-10-14T11:23:59.560Z,19.64
2022-10-14T11:26:39.499Z,19.63
2022-10-14T11:29:26.128Z,19.60
2022-10-14T11:32:14.046Z,19.65
2022-10-14T11:34:44.439Z,19.67
2022-10-14T11:37:22.396Z,19.69
2022-10-14T11:39:50.958Z,19.62
2022-10-14T11:42:40.306Z,19.56
2022-10-14T11:45:20.481Z,19.42
2022-10-14T11:48:08.370Z,19.36
2022-10-14T11:50:40.822Z,19.37
2022-10-14T11:53:19.840Z,19.48
2022-10-14T11:55:50.604Z,19.46
2022-10-14T11:58:23.692Z,19.44
2022-10-14T12:00:54.531Z,19.47
2022-10-14T12:03:29.783Z,19.49
2022-10-14T12:06:12.301Z,19.48
2022-10-14T12:08:58.332Z,19.50
2022-10-14T12:11:35.186Z,19.45
2022-10-14T12:14:05.956Z,19.39
2022-10-14T12:16:33.259Z,19.32
2022-10-14T12:19:01.190Z,19.41
2022-10-14T12:21:38.654Z,19.36
2022-10-14T12:24:16.538Z,19.41
2022-10-14T12:26:55.285Z,19.18
2022-10-14T12:29:28.217Z,18.87
2022-10-14T12:32:04.146Z,18.91
2022-10-14T12:34:33.552Z,19.02
2022-10-14T12:37:28.898Z,19.15
2022-10-14T12:40:06.716Z,19.31
2022-10-14T12:42:44.157Z,19.43
2022-10-14T12:45:23.954Z,19.49
2022-10-14T12:48:12.452Z,19.50
2022-10-14T12:50:47.378Z,19.51
2022-10-14T12:53:27.793Z,19.59
2022-10-14T12:55:57.075Z,19.67
2022-10-14T12:58:26.858Z,19.74
2022-10-14T13:01:19.827Z,19.85
2022-10-14T13:03:54.662Z,19.99
2022-10-14T13:06:30.489Z,20.16
2022-10-14T13:09:12.850Z,20.20
2022-10-14T13:11:41.293Z,20.23
2022-10-14T13:14:27.330Z,20.28
2022-10-14T13:16:57.681Z,20.25
2022-10-14T13:19:49.434Z,20.24
2022-10-14T13:22:31.442Z,20.26
2022-10-14T13:25:07.974Z,20.28
2022-10-14T13:27:40.774Z,20.33
2022-10-14T13:30:19.500Z,20.28
2022-10-14T13:32:55.538Z,20.17
2022-10-14T13:35:33.651Z,20.20
2022-10-14T13:38:13.428Z,20.21
2022-10-14T13:40:47.426Z,20.09
2022-10-14T13:43:28.706Z,19.90
2022-10-14T13:46:34.705Z,19.69
2022-10-14T13:49:07.028Z,19.50
2022-10-14T13:51:50.056Z,19.34
2022-10-14T13:54:18.626Z,19.21
2022-10-14T13:57:38.697Z,19.04
2022-10-14T14:00:37.303Z,18.96
2022-10-14T14:03:03.399Z,18.91
2022-10-14T14:05:35.110Z,18.93
2022-10-14T14:08:34.993Z,18.95
2022-10-14T14:11:15.487Z,18.95
2022-10-14T14:13:53.229Z,18.91
2022-10-14T14:16:25.365Z,18.86
2022-10-14T14:19:04.345Z,18.87
2022-10-14T14:21:35.881Z,18.88
2022-10-14T14:24:06.721Z,18.83
2022-10-14T14:26:34.913Z,18.77
2022-10-14T14:29:16.682Z,18.72
2022-10-14T14:32:06.590Z,18.67
2022-10-14T14:34:35.152Z,18.58
2022-10-14T14:37:24.755Z,18.54
2022-10-14T14:40:16.255Z,18.48
2022-10-14T14:42:43.656Z,18.43
2022-10-14T14:45:41.025Z,18.42
2022-10-14T14:48:08.262Z,18.35
2022-10-14T14:50:43.187Z,18.33
2022-10-14T14:56:12.050Z,18.28
2022-10-14T14:58:43.019Z,18.20
2022-10-14T15:01:24.292Z,18.05
2022-10-14T15:04:12.100Z,17.96
2022-10-14T15:06:58.839Z,17.85
2022-10-14T15:09:37.093Z,17.69
2022-10-14T15:12:05.391Z,17.62
2022-10-14T15:14:34.970Z,17.51
2022-10-14T15:17:05.743Z,17.49
2022-10-14T15:19:38.729Z,17.43
2022-10-14T15:22:29.632Z,17.38
2022-10-14T15:25:04.152Z,17.30
2022-10-14T15:27:38.309Z,17.23
2022-10-14T15:30:44.941Z,17.16
2022-10-14T15:33:19.139Z,17.10
2022-10-14T15:36:03.529Z,17.10
2022-10-14T15:40:59.343Z,17.00
2022-10-14T15:43:27.574Z,16.91
2022-10-14T15:46:18.226Z,16.83
2022-10-14T15:48:48.181Z,16.75
2022-10-14T15:51:17.780Z,16.74
2022-10-14T15:53:45.346Z,16.66
2022-10-14T15:56:12.268Z,16.61
2022-10-14T15:58:39.025Z,16.59
2022-10-14T16:01:07.279Z,16.60
2022-10-14T16:03:37.206Z,16.53
2022-10-14T16:06:33.353Z,16.44
2022-10-14T16:09:00.656Z,16.43
2022-10-14T16:11:31.483Z,16.40
2022-10-14T16:13:58.689Z,16.37
2022-10-14T16:16:28.964Z,16.35
2022-10-14T16:19:20.645Z,16.32
2022-10-14T16:25:03.479Z,16.20
2022-10-14T16:27:31.149Z,16.17
2022-10-14T16:29:59.845Z,16.15
2022-10-14T16:32:26.949Z,16.10
2022-10-14T16:34:56.024Z,16.06
2022-10-14T16:37:23.182Z,15.99
2022-10-14T16:39:50.007Z,15.96
2022-10-14T16:42:19.082Z,15.91
2022-10-14T16:44:46.670Z,15.88
2022-10-14T16:47:16.697Z,15.87
2022-10-14T16:49:45.744Z,15.90
2022-10-14T16:52:12.760Z,15.90
2022-10-14T16:54:40.607Z,15.81
2022-10-14T16:57:08.339Z,15.76
2022-10-14T16:59:35.121Z,15.75
2022-10-14T17:02:07.651Z,15.73
2022-10-14T17:04:34.684Z,15.74
2022-10-14T17:07:07.742Z,15.73
2022-10-14T17:09:36.029Z,15.71
2022-10-14T17:12:06.874Z,15.67
2022-10-14T17:14:38.140Z,15.71
2022-10-14T17:17:05.454Z,15.72
2022-10-14T17:19:33.377Z,15.71
2022-10-14T17:22:02.665Z,15.73
2022-10-14T17:24:29.921Z,15.64
2022-10-14T17:26:58.102Z,15.53
2022-10-14T17:29:25.822Z,15.49
2022-10-14T17:31:53.199Z,15.53
2022-10-14T17:34:20.209Z,15.54
2022-10-14T17:36:47.026Z,15.54
2022-10-14T17:39:25.915Z,15.53
2022-10-14T17:41:56.806Z,15.50
2022-10-14T17:44:25.443Z,15.48
2022-10-14T17:46:53.358Z,15.45
2022-10-14T17:49:19.898Z,15.43
2022-10-14T17:51:47.321Z,15.35
2022-10-14T17:54:14.408Z,15.33
2022-10-14T17:56:41.378Z,15.31
2022-10-14T17:59:11.027Z,15.33
2022-10-14T18:04:25.681Z,15.29
2022-10-14T18:06:54.157Z,15.30
2022-10-14T18:09:46.051Z,15.26
2022-10-14T18:12:12.892Z,15.28
2022-10-14T18:14:40.759Z,15.19
2022-10-14T18:17:11.182Z,15.17
2022-10-14T18:19:41.072Z,15.19
2022-10-14T18:22:11.275Z,15.16
2022-10-14T18:24:39.549Z,15.20
2022-10-14T18:27:08.830Z,15.21
2022-10-14T18:29:36.528Z,15.16
2022-10-14T18:32:03.658Z,15.18
2022-10-14T18:34:31.040Z,15.15
2022-10-14T18:36:58.212Z,15.10
2022-10-14T18:39:25.303Z,15.07
2022-10-14T18:41:52.672Z,15.02
2022-10-14T18:44:19.491Z,15.01
2022-10-14T18:46:48.192Z,15.03
2022-10-14T18:49:16.472Z,15.03
2022-10-14T18:51:43.481Z,14.98
2022-10-14T18:54:12.982Z,14.95
2022-10-14T18:56:41.412Z,14.84
2022-10-14T18:59:09.944Z,14.79
2022-10-14T19:01:39.359Z,14.75
2022-10-14T19:04:06.902Z,14.67
2022-10-14T19:06:34.496Z,14.69
2022-10-14T19:09:04.235Z,14.64
2022-10-14T19:11:32.143Z,14.63
2022-10-14T19:14:00.436Z,14.63
2022-10-14T19:16:29.346Z,14.59
2022-10-14T19:18:56.983Z,14.54
2022-10-14T19:21:31.142Z,14.50
2022-10-14T19:23:59.185Z,14.45
2022-10-14T19:26:28.233Z,14.43
2022-10-14T19:28:56.895Z,14.36
2022-10-14T19:31:25.089Z,14.34
2022-10-14T19:33:52.593Z,14.32
2022-10-14T19:36:20.444Z,14.29
2022-10-14T19:38:51.117Z,14.23
2022-10-14T19:41:18.853Z,14.22
2022-10-14T19:43:46.703Z,14.19
2022-10-14T19:46:14.507Z,14.22
2022-10-14T19:48:42.624Z,14.13
2022-10-14T19:51:10.294Z,14.11
2022-10-14T19:53:38.531Z,14.09
2022-10-14T19:56:10.541Z,14.05
2022-10-14T19:58:39.752Z,14.04
2022-10-14T20:01:14.319Z,14.03
2022-10-14T20:03:41.769Z,14.10
2022-10-14T20:06:10.150Z,14.03
2022-10-14T20:08:37.733Z,14.01
2022-10-14T20:11:05.534Z,14.02
2022-10-14T20:13:33.831Z,13.95
2022-10-14T20:16:02.608Z,13.97
2022-10-14T20:18:30.279Z,13.93
2022-10-14T20:20:58.042Z,13.94
2022-10-14T20:23:50.923Z,13.86
2022-10-14T20:26:19.988Z,13.81
2022-10-14T20:28:48.140Z,13.80
2022-10-14T20:31:19.608Z,13.77
2022-10-14T20:33:47.184Z,13.71
2022-10-14T20:36:16.102Z,13.70
2022-10-14T20:38:43.191Z,13.66
2022-10-14T20:41:18.741Z,13.67
2022-10-14T20:43:45.779Z,13.67
2022-10-14T20:46:13.459Z,13.63
2022-10-14T20:48:40.424Z,13.61
2022-10-14T20:51:08.512Z,13.60
2022-10-14T20:53:36.335Z,13.57
2022-10-14T20:56:05.265Z,13.56
2022-10-14T20:58:35.730Z,13.55
2022-10-14T21:01:11.528Z,13.51
2022-10-14T21:03:39.388Z,13.48
2022-10-14T21:06:08.346Z,13.46
2022-10-14T21:08:35.759Z,13.44
2022-10-14T21:11:04.401Z,13.43
2022-10-14T21:13:31.633Z,13.45
2022-10-14T21:15:59.076Z,13.45
2022-10-14T21:18:26.823Z,13.43
2022-10-14T21:20:54.300Z,13.44
2022-10-14T21:23:21.298Z,13.41
2022-10-14T21:25:54.621Z,13.39
2022-10-14T21:28:21.531Z,13.38
2022-10-14T21:30:50.547Z,13.36
2022-10-14T21:33:20.300Z,13.37
2022-10-14T21:35:48.777Z,13.38
2022-10-14T21:38:15.827Z,13.36
2022-10-14T21:40:43.680Z,13.35
2022-10-14T21:43:10.979Z,13.30
2022-10-14T21:45:39.747Z,13.29
2022-10-14T21:48:07.172Z,13.25
2022-10-14T21:50:34.811Z,13.21
2022-10-14T21:53:01.410Z,13.21
2022-10-14T21:55:29.062Z,13.23
2022-10-14T21:57:57.560Z,13.22
2022-10-14T22:00:24.480Z,13.22
2022-10-14T22:02:54.340Z,13.17
2022-10-14T22:05:23.472Z,13.14
2022-10-14T22:07:50.361Z,13.15
2022-10-14T22:10:36.776Z,13.17
2022-10-14T22:13:03.697Z,13.14
2022-10-14T22:15:31.635Z,13.15
2022-10-14T22:17:58.908Z,13.14
2022-10-14T22:20:25.707Z,13.13
2022-10-14T22:22:54.196Z,13.11
2022-10-14T22:25:23.428Z,13.09
2022-10-14T22:27:50.640Z,13.07
2022-10-14T22:30:18.006Z,13.03
2022-10-14T22:32:46.167Z,13.01
2022-10-14T22:35:13.098Z,13.00
2022-10-14T22:37:41.309Z,13.01
2022-10-14T22:40:13.437Z,13.01
2022-10-14T22:42:42.254Z,13.00
2022-10-14T22:45:09.937Z,12.99
2022-10-14T22:48:01.821Z,13.00
2022-10-14T22:50:29.868Z,12.92
2022-10-14T22:52:56.410Z,12.90
2022-10-14T22:55:23.990Z,12.92
2022-10-14T22:57:51.680Z,12.92
2022-10-14T23:00:18.499Z,12.88
2022-10-14T23:02:46.452Z,12.87
2022-10-14T23:05:14.095Z,12.85
2022-10-14T23:07:41.085Z,12.80
2022-10-14T23:10:09.004Z,12.77
2022-10-14T23:12:39.812Z,12.75
2022-10-14T23:15:12.580Z,12.70
2022-10-14T23:17:39.493Z,12.71
2022-10-14T23:20:06.792Z,12.71
2022-10-14T23:22:34.835Z,12.68
2022-10-14T23:25:02.630Z,12.67
2022-10-14T23:27:32.863Z,12.66
2022-10-14T23:30:02.612Z,12.64
2022-10-14T23:32:31.290Z,12.61
2022-10-14T23:34:58.210Z,12.63
2022-10-14T23:37:25.259Z,12.62
2022-10-14T23:39:52.997Z,12.59
2022-10-14T23:42:19.724Z,12.59
2022-10-14T23:45:12.025Z,12.56
2022-10-14T23:47:39.203Z,12.55
2022-10-14T23:50:07.845Z,12.52
2022-10-14T23:53:00.127Z,12.49
2022-10-14T23:55:27.823Z,12.50
2022-10-14T23:57:54.806Z,12.49
